sensor_id;sensor_type;location;lat;lon;timestamp;P1;durP1;ratioP1;P2;durP2;ratioP2
71629;SDS011;59479;51.902;8.212;2022-07-15T00:02:06;5.43;;;1.60;;
71629;SDS011;59479;51.902;8.212;2022-07-15T00:04:33;6.88;;;1.60;;
71629;SDS011;59479;51.902;8.212;2022-07-15T00:06:59;5.18;;;1.40;;
71629;SDS011;59479;51.902;8.212;2022-07-15T00:09:24;5.63;;;1.60;;
71629;SDS011;59479;51.902;8.212;2022-07-15T00:12:09;6.50;;;1.35;;
71629;SDS011;59479;51.902;8.212;2022-07-15T00:14:36;3.70;;;1.65;;
71629;SDS011;59479;51.902;8.212;2022-07-15T00:17:01;3.88;;;1.20;;
71629;SDS011;59479;51.902;8.212;2022-07-15T00:19:27;4.73;;;1.83;;
71629;SDS011;59479;51.902;8.212;2022-07-15T00:21:53;4.43;;;1.58;;
71629;SDS011;59479;51.902;8.212;2022-07-15T00:24:18;5.47;;;1.48;;
71629;SDS011;59479;51.902;8.212;2022-07-15T00:26:43;5.37;;;1.50;;
71629;SDS011;59479;51.902;8.212;2022-07-15T00:29:09;6.37;;;1.80;;
71629;SDS011;59479;51.902;8.212;2022-07-15T00:31:35;5.95;;;2.03;;
71629;SDS011;59479;51.902;8.212;2022-07-15T00:34:01;7.33;;;1.90;;
71629;SDS011;59479;51.902;8.212;2022-07-15T00:36:26;6.67;;;1.97;;
71629;SDS011;59479;51.902;8.212;2022-07-15T00:38:51;6.73;;;1.80;;
71629;SDS011;59479;51.902;8.212;2022-07-15T00:41:17;6.13;;;1.67;;
71629;SDS011;59479;51.902;8.212;2022-07-15T00:43:42;4.53;;;1.90;;
71629;SDS011;59479;51.902;8.212;2022-07-15T00:46:07;4.03;;;1.65;;
71629;SDS011;59479;51.902;8.212;2022-07-15T00:48:33;5.87;;;2.20;;
71629;SDS011;59479;51.902;8.212;2022-07-15T00:50:58;4.80;;;2.00;;
71629;SDS011;59479;51.902;8.212;2022-07-15T00:53:24;5.78;;;2.17;;
71629;SDS011;59479;51.902;8.212;2022-07-15T00:55:52;6.38;;;1.98;;
71629;SDS011;59479;51.902;8.212;2022-07-15T00:58:21;6.90;;;2.20;;
71629;SDS011;59479;51.902;8.212;2022-07-15T01:00:51;5.20;;;2.08;;
71629;SDS011;59479;51.902;8.212;2022-07-15T01:03:18;6.65;;;2.40;;
71629;SDS011;59479;51.902;8.212;2022-07-15T01:05:45;5.65;;;2.10;;
71629;SDS011;59479;51.902;8.212;2022-07-15T01:08:14;8.98;;;2.33;;
71629;SDS011;59479;51.902;8.212;2022-07-15T01:10:40;5.60;;;1.88;;
71629;SDS011;59479;51.902;8.212;2022-07-15T01:13:06;5.10;;;1.88;;
71629;SDS011;59479;51.902;8.212;2022-07-15T01:15:32;6.33;;;1.90;;
71629;SDS011;59479;51.902;8.212;2022-07-15T01:17:59;5.15;;;1.98;;
71629;SDS011;59479;51.902;8.212;2022-07-15T01:20:25;6.55;;;1.85;;
71629;SDS011;59479;51.902;8.212;2022-07-15T01:22:51;7.17;;;2.23;;
71629;SDS011;59479;51.902;8.212;2022-07-15T01:25:16;8.93;;;2.45;;
71629;SDS011;59479;51.902;8.212;2022-07-15T01:27:42;7.22;;;2.00;;
71629;SDS011;59479;51.902;8.212;2022-07-15T01:30:07;7.30;;;2.17;;
71629;SDS011;59479;51.902;8.212;2022-07-15T01:32:33;7.00;;;2.10;;
71629;SDS011;59479;51.902;8.212;2022-07-15T01:34:59;4.27;;;1.93;;
71629;SDS011;59479;51.902;8.212;2022-07-15T01:37:24;5.95;;;2.35;;
71629;SDS011;59479;51.902;8.212;2022-07-15T01:39:50;5.22;;;2.10;;
71629;SDS011;59479;51.902;8.212;2022-07-15T01:42:15;7.80;;;2.33;;
71629;SDS011;59479;51.902;8.212;2022-07-15T01:44:41;8.40;;;2.70;;
71629;SDS011;59479;51.902;8.212;2022-07-15T01:47:06;4.97;;;1.90;;
71629;SDS011;59479;51.902;8.212;2022-07-15T01:49:32;4.82;;;2.28;;
71629;SDS011;59479;51.902;8.212;2022-07-15T01:51:58;7.68;;;2.50;;
71629;SDS011;59479;51.902;8.212;2022-07-15T01:54:26;6.75;;;2.30;;
71629;SDS011;59479;51.902;8.212;2022-07-15T01:56:53;6.80;;;2.25;;
71629;SDS011;59479;51.902;8.212;2022-07-15T01:59:19;8.17;;;2.53;;
71629;SDS011;59479;51.902;8.212;2022-07-15T02:01:47;8.57;;;2.20;;
71629;SDS011;59479;51.902;8.212;2022-07-15T02:04:13;6.97;;;2.45;;
71629;SDS011;59479;51.902;8.212;2022-07-15T02:06:39;7.27;;;2.67;;
71629;SDS011;59479;51.902;8.212;2022-07-15T02:09:05;5.45;;;2.30;;
71629;SDS011;59479;51.902;8.212;2022-07-15T02:11:31;5.30;;;2.20;;
71629;SDS011;59479;51.902;8.212;2022-07-15T02:13:57;5.32;;;1.92;;
71629;SDS011;59479;51.902;8.212;2022-07-15T02:16:28;6.37;;;1.97;;
71629;SDS011;59479;51.902;8.212;2022-07-15T02:18:57;6.55;;;2.08;;
71629;SDS011;59479;51.902;8.212;2022-07-15T02:21:23;6.32;;;1.90;;
71629;SDS011;59479;51.902;8.212;2022-07-15T02:23:51;6.40;;;2.00;;
71629;SDS011;59479;51.902;8.212;2022-07-15T02:26:17;7.05;;;2.20;;
71629;SDS011;59479;51.902;8.212;2022-07-15T02:28:43;5.38;;;2.00;;
71629;SDS011;59479;51.902;8.212;2022-07-15T02:31:08;8.23;;;2.42;;
71629;SDS011;59479;51.902;8.212;2022-07-15T02:33:34;8.23;;;2.37;;
71629;SDS011;59479;51.902;8.212;2022-07-15T02:35:59;5.57;;;2.03;;
71629;SDS011;59479;51.902;8.212;2022-07-15T02:38:24;6.47;;;2.30;;
71629;SDS011;59479;51.902;8.212;2022-07-15T02:40:50;7.30;;;2.37;;
71629;SDS011;59479;51.902;8.212;2022-07-15T02:43:15;5.67;;;2.27;;
71629;SDS011;59479;51.902;8.212;2022-07-15T02:45:40;4.67;;;2.10;;
71629;SDS011;59479;51.902;8.212;2022-07-15T02:48:07;6.78;;;2.17;;
71629;SDS011;59479;51.902;8.212;2022-07-15T02:50:32;6.30;;;2.25;;
71629;SDS011;59479;51.902;8.212;2022-07-15T02:52:59;4.40;;;2.10;;
71629;SDS011;59479;51.902;8.212;2022-07-15T02:55:25;6.20;;;2.35;;
71629;SDS011;59479;51.902;8.212;2022-07-15T02:57:50;5.43;;;2.07;;
71629;SDS011;59479;51.902;8.212;2022-07-15T03:00:16;5.53;;;2.30;;
71629;SDS011;59479;51.902;8.212;2022-07-15T03:02:46;5.78;;;1.70;;
71629;SDS011;59479;51.902;8.212;2022-07-15T03:05:12;6.13;;;2.28;;
71629;SDS011;59479;51.902;8.212;2022-07-15T03:07:38;9.32;;;2.10;;
71629;SDS011;59479;51.902;8.212;2022-07-15T03:10:05;8.10;;;2.15;;
71629;SDS011;59479;51.902;8.212;2022-07-15T03:12:31;6.50;;;2.20;;
71629;SDS011;59479;51.902;8.212;2022-07-15T03:14:57;5.77;;;2.07;;
71629;SDS011;59479;51.902;8.212;2022-07-15T03:17:23;4.93;;;2.20;;
71629;SDS011;59479;51.902;8.212;2022-07-15T03:19:48;5.10;;;2.20;;
71629;SDS011;59479;51.902;8.212;2022-07-15T03:22:13;13.88;;;2.25;;
71629;SDS011;59479;51.902;8.212;2022-07-15T03:24:39;7.50;;;1.90;;
71629;SDS011;59479;51.902;8.212;2022-07-15T03:27:04;5.37;;;1.90;;
71629;SDS011;59479;51.902;8.212;2022-07-15T03:29:29;7.67;;;2.20;;
71629;SDS011;59479;51.902;8.212;2022-07-15T03:31:55;7.47;;;2.10;;
71629;SDS011;59479;51.902;8.212;2022-07-15T03:34:21;6.90;;;2.05;;
71629;SDS011;59479;51.902;8.212;2022-07-15T03:36:46;5.70;;;2.40;;
71629;SDS011;59479;51.902;8.212;2022-07-15T03:39:11;9.13;;;3.10;;
71629;SDS011;59479;51.902;8.212;2022-07-15T03:41:37;8.27;;;2.57;;
71629;SDS011;59479;51.902;8.212;2022-07-15T03:44:03;8.70;;;3.10;;
71629;SDS011;59479;51.902;8.212;2022-07-15T03:46:29;6.60;;;2.30;;
71629;SDS011;59479;51.902;8.212;2022-07-15T03:48:55;7.78;;;2.80;;
71629;SDS011;59479;51.902;8.212;2022-07-15T03:51:21;7.18;;;2.78;;
71629;SDS011;59479;51.902;8.212;2022-07-15T03:53:50;7.38;;;2.70;;
71629;SDS011;59479;51.902;8.212;2022-07-15T03:56:15;8.07;;;2.65;;
71629;SDS011;59479;51.902;8.212;2022-07-15T03:58:41;5.05;;;2.25;;
71629;SDS011;59479;51.902;8.212;2022-07-15T04:01:09;7.27;;;2.67;;
71629;SDS011;59479;51.902;8.212;2022-07-15T04:03:34;9.50;;;2.95;;
71629;SDS011;59479;51.902;8.212;2022-07-15T04:06:00;6.80;;;2.80;;
71629;SDS011;59479;51.902;8.212;2022-07-15T04:08:25;6.53;;;2.47;;
71629;SDS011;59479;51.902;8.212;2022-07-15T04:10:50;8.43;;;2.40;;
71629;SDS011;59479;51.902;8.212;2022-07-15T04:13:16;5.45;;;2.80;;
71629;SDS011;59479;51.902;8.212;2022-07-15T04:15:44;6.47;;;2.60;;
71629;SDS011;59479;51.902;8.212;2022-07-15T04:18:11;7.75;;;3.10;;
71629;SDS011;59479;51.902;8.212;2022-07-15T04:20:36;6.77;;;2.90;;
71629;SDS011;59479;51.902;8.212;2022-07-15T04:23:01;10.97;;;2.87;;
71629;SDS011;59479;51.902;8.212;2022-07-15T04:25:27;7.30;;;3.13;;
71629;SDS011;59479;51.902;8.212;2022-07-15T04:27:52;6.67;;;2.70;;
71629;SDS011;59479;51.902;8.212;2022-07-15T04:30:17;7.20;;;3.23;;
71629;SDS011;59479;51.902;8.212;2022-07-15T04:32:43;8.73;;;3.10;;
71629;SDS011;59479;51.902;8.212;2022-07-15T04:35:08;8.50;;;3.03;;
71629;SDS011;59479;51.902;8.212;2022-07-15T04:37:33;8.00;;;3.17;;
71629;SDS011;59479;51.902;8.212;2022-07-15T04:39:59;6.57;;;2.80;;
71629;SDS011;59479;51.902;8.212;2022-07-15T04:42:24;6.47;;;2.45;;
71629;SDS011;59479;51.902;8.212;2022-07-15T04:44:50;6.72;;;2.47;;
71629;SDS011;59479;51.902;8.212;2022-07-15T04:47:15;9.03;;;2.53;;
71629;SDS011;59479;51.902;8.212;2022-07-15T04:49:42;6.70;;;2.30;;
71629;SDS011;59479;51.902;8.212;2022-07-15T04:52:26;8.05;;;2.80;;
71629;SDS011;59479;51.902;8.212;2022-07-15T04:54:52;8.07;;;2.60;;
71629;SDS011;59479;51.902;8.212;2022-07-15T04:57:18;8.45;;;2.63;;
71629;SDS011;59479;51.902;8.212;2022-07-15T04:59:44;8.68;;;2.85;;
71629;SDS011;59479;51.902;8.212;2022-07-15T05:02:09;5.40;;;2.20;;
71629;SDS011;59479;51.902;8.212;2022-07-15T05:04:34;8.50;;;2.80;;
71629;SDS011;59479;51.902;8.212;2022-07-15T05:07:00;9.83;;;2.77;;
71629;SDS011;59479;51.902;8.212;2022-07-15T05:09:25;9.27;;;2.70;;
71629;SDS011;59479;51.902;8.212;2022-07-15T05:11:51;7.88;;;2.45;;
71629;SDS011;59479;51.902;8.212;2022-07-15T05:14:16;5.53;;;2.70;;
71629;SDS011;59479;51.902;8.212;2022-07-15T05:16:42;6.63;;;2.00;;
71629;SDS011;59479;51.902;8.212;2022-07-15T05:19:07;9.73;;;2.40;;
71629;SDS011;59479;51.902;8.212;2022-07-15T05:21:33;7.97;;;2.17;;
71629;SDS011;59479;51.902;8.212;2022-07-15T05:23:58;7.17;;;2.40;;
71629;SDS011;59479;51.902;8.212;2022-07-15T05:26:24;6.43;;;2.40;;
71629;SDS011;59479;51.902;8.212;2022-07-15T05:28:49;5.37;;;2.40;;
71629;SDS011;59479;51.902;8.212;2022-07-15T05:31:14;6.77;;;2.30;;
71629;SDS011;59479;51.902;8.212;2022-07-15T05:33:40;6.90;;;2.37;;
71629;SDS011;59479;51.902;8.212;2022-07-15T05:36:05;6.45;;;2.10;;
71629;SDS011;59479;51.902;8.212;2022-07-15T05:38:36;7.95;;;2.55;;
71629;SDS011;59479;51.902;8.212;2022-07-15T05:41:01;7.63;;;2.20;;
71629;SDS011;59479;51.902;8.212;2022-07-15T05:43:26;5.72;;;2.17;;
71629;SDS011;59479;51.902;8.212;2022-07-15T05:45:52;8.70;;;2.63;;
71629;SDS011;59479;51.902;8.212;2022-07-15T05:48:17;6.27;;;1.97;;
71629;SDS011;59479;51.902;8.212;2022-07-15T05:50:42;8.97;;;2.50;;
71629;SDS011;59479;51.902;8.212;2022-07-15T05:53:07;5.37;;;1.80;;
71629;SDS011;59479;51.902;8.212;2022-07-15T05:55:33;10.47;;;2.30;;
71629;SDS011;59479;51.902;8.212;2022-07-15T05:57:58;7.20;;;2.13;;
71629;SDS011;59479;51.902;8.212;2022-07-15T06:00:23;9.17;;;2.07;;
71629;SDS011;59479;51.902;8.212;2022-07-15T06:02:49;7.27;;;2.17;;
71629;SDS011;59479;51.902;8.212;2022-07-15T06:05:14;7.60;;;1.90;;
71629;SDS011;59479;51.902;8.212;2022-07-15T06:07:39;8.35;;;1.80;;
71629;SDS011;59479;51.902;8.212;2022-07-15T06:10:06;8.67;;;1.83;;
71629;SDS011;59479;51.902;8.212;2022-07-15T06:12:32;7.50;;;2.05;;
71629;SDS011;59479;51.902;8.212;2022-07-15T06:14:57;6.83;;;1.97;;
71629;SDS011;59479;51.902;8.212;2022-07-15T06:17:23;7.53;;;1.73;;
71629;SDS011;59479;51.902;8.212;2022-07-15T06:19:48;9.90;;;1.90;;
71629;SDS011;59479;51.902;8.212;2022-07-15T06:22:13;8.77;;;1.90;;
71629;SDS011;59479;51.902;8.212;2022-07-15T06:24:39;6.60;;;1.48;;
71629;SDS011;59479;51.902;8.212;2022-07-15T06:27:04;6.30;;;1.63;;
71629;SDS011;59479;51.902;8.212;2022-07-15T06:29:29;7.00;;;2.00;;
71629;SDS011;59479;51.902;8.212;2022-07-15T06:31:58;5.68;;;1.67;;
71629;SDS011;59479;51.902;8.212;2022-07-15T06:34:23;9.17;;;2.00;;
71629;SDS011;59479;51.902;8.212;2022-07-15T06:36:48;6.50;;;1.80;;
71629;SDS011;59479;51.902;8.212;2022-07-15T06:39:15;6.65;;;1.83;;
71629;SDS011;59479;51.902;8.212;2022-07-15T06:41:44;10.63;;;1.92;;
71629;SDS011;59479;51.902;8.212;2022-07-15T06:44:10;6.30;;;1.55;;
71629;SDS011;59479;51.902;8.212;2022-07-15T06:46:40;9.82;;;1.92;;
71629;SDS011;59479;51.902;8.212;2022-07-15T06:49:06;7.33;;;1.70;;
71629;SDS011;59479;51.902;8.212;2022-07-15T06:51:35;9.60;;;1.55;;
71629;SDS011;59479;51.902;8.212;2022-07-15T06:54:04;6.18;;;1.50;;
71629;SDS011;59479;51.902;8.212;2022-07-15T06:56:32;7.45;;;1.50;;
71629;SDS011;59479;51.902;8.212;2022-07-15T06:58:59;8.40;;;2.25;;
71629;SDS011;59479;51.902;8.212;2022-07-15T07:01:25;9.57;;;1.90;;
71629;SDS011;59479;51.902;8.212;2022-07-15T07:03:51;7.45;;;1.48;;
71629;SDS011;59479;51.902;8.212;2022-07-15T07:06:17;4.82;;;1.35;;
71629;SDS011;59479;51.902;8.212;2022-07-15T07:08:43;8.18;;;1.45;;
71629;SDS011;59479;51.902;8.212;2022-07-15T07:11:11;4.57;;;1.42;;
71629;SDS011;59479;51.902;8.212;2022-07-15T07:13:38;3.93;;;1.40;;
71629;SDS011;59479;51.902;8.212;2022-07-15T07:16:07;7.90;;;1.65;;
71629;SDS011;59479;51.902;8.212;2022-07-15T07:18:33;8.68;;;2.05;;
71629;SDS011;59479;51.902;8.212;2022-07-15T07:21:00;6.72;;;1.42;;
71629;SDS011;59479;51.902;8.212;2022-07-15T07:23:27;7.32;;;1.63;;
71629;SDS011;59479;51.902;8.212;2022-07-15T07:25:56;6.30;;;1.47;;
71629;SDS011;59479;51.902;8.212;2022-07-15T07:28:24;6.65;;;1.45;;
71629;SDS011;59479;51.902;8.212;2022-07-15T07:30:50;8.05;;;1.90;;
71629;SDS011;59479;51.902;8.212;2022-07-15T07:33:17;4.53;;;1.10;;
71629;SDS011;59479;51.902;8.212;2022-07-15T07:35:44;7.57;;;1.50;;
71629;SDS011;59479;51.902;8.212;2022-07-15T07:38:10;6.43;;;1.20;;
71629;SDS011;59479;51.902;8.212;2022-07-15T07:40:36;6.55;;;1.42;;
71629;SDS011;59479;51.902;8.212;2022-07-15T07:43:01;5.60;;;1.50;;
71629;SDS011;59479;51.902;8.212;2022-07-15T07:45:26;5.57;;;1.35;;
71629;SDS011;59479;51.902;8.212;2022-07-15T07:47:53;4.47;;;1.13;;
71629;SDS011;59479;51.902;8.212;2022-07-15T07:50:19;6.25;;;1.30;;
71629;SDS011;59479;51.902;8.212;2022-07-15T07:52:44;6.40;;;1.20;;
71629;SDS011;59479;51.902;8.212;2022-07-15T07:55:10;7.80;;;1.10;;
71629;SDS011;59479;51.902;8.212;2022-07-15T07:57:35;4.77;;;1.10;;
71629;SDS011;59479;51.902;8.212;2022-07-15T08:00:12;7.45;;;1.17;;
71629;SDS011;59479;51.902;8.212;2022-07-15T08:02:37;3.95;;;1.00;;
71629;SDS011;59479;51.902;8.212;2022-07-15T08:05:03;4.27;;;1.20;;
71629;SDS011;59479;51.902;8.212;2022-07-15T08:07:28;4.60;;;1.37;;
71629;SDS011;59479;51.902;8.212;2022-07-15T08:09:54;5.80;;;1.20;;
71629;SDS011;59479;51.902;8.212;2022-07-15T08:12:19;4.37;;;0.90;;
71629;SDS011;59479;51.902;8.212;2022-07-15T08:14:45;5.27;;;1.10;;
71629;SDS011;59479;51.902;8.212;2022-07-15T08:17:10;4.27;;;1.07;;
71629;SDS011;59479;51.902;8.212;2022-07-15T08:19:35;6.03;;;1.30;;
71629;SDS011;59479;51.902;8.212;2022-07-15T08:22:01;4.27;;;1.20;;
71629;SDS011;59479;51.902;8.212;2022-07-15T08:24:26;6.57;;;1.20;;
71629;SDS011;59479;51.902;8.212;2022-07-15T08:26:52;5.23;;;1.10;;
71629;SDS011;59479;51.902;8.212;2022-07-15T08:29:17;3.40;;;1.10;;
71629;SDS011;59479;51.902;8.212;2022-07-15T08:31:43;4.30;;;1.40;;
71629;SDS011;59479;51.902;8.212;2022-07-15T08:34:08;6.00;;;1.33;;
71629;SDS011;59479;51.902;8.212;2022-07-15T08:36:33;5.25;;;1.30;;
71629;SDS011;59479;51.902;8.212;2022-07-15T08:38:59;5.20;;;1.30;;
71629;SDS011;59479;51.902;8.212;2022-07-15T08:41:24;4.30;;;0.90;;
71629;SDS011;59479;51.902;8.212;2022-07-15T08:46:45;4.05;;;1.40;;
71629;SDS011;59479;51.902;8.212;2022-07-15T08:49:13;3.47;;;1.45;;
71629;SDS011;59479;51.902;8.212;2022-07-15T08:51:43;4.35;;;1.20;;
71629;SDS011;59479;51.902;8.212;2022-07-15T08:54:11;3.25;;;1.10;;
71629;SDS011;59479;51.902;8.212;2022-07-15T08:56:40;6.78;;;1.45;;
71629;SDS011;59479;51.902;8.212;2022-07-15T08:59:07;6.13;;;1.30;;
71629;SDS011;59479;51.902;8.212;2022-07-15T09:01:34;4.27;;;1.10;;
71629;SDS011;59479;51.902;8.212;2022-07-15T09:04:07;4.25;;;1.17;;
71629;SDS011;59479;51.902;8.212;2022-07-15T09:06:40;4.35;;;1.30;;
71629;SDS011;59479;51.902;8.212;2022-07-15T09:11:56;6.70;;;1.15;;
71629;SDS011;59479;51.902;8.212;2022-07-15T09:14:28;3.92;;;1.25;;
71629;SDS011;59479;51.902;8.212;2022-07-15T09:22:50;4.38;;;1.02;;
71629;SDS011;59479;51.902;8.212;2022-07-15T09:25:17;3.97;;;1.00;;
71629;SDS011;59479;51.902;8.212;2022-07-15T09:27:44;4.47;;;1.08;;
71629;SDS011;59479;51.902;8.212;2022-07-15T09:33:00;3.38;;;0.88;;
71629;SDS011;59479;51.902;8.212;2022-07-15T09:35:46;5.13;;;1.38;;
71629;SDS011;59479;51.902;8.212;2022-07-15T09:38:27;5.30;;;1.27;;
71629;SDS011;59479;51.902;8.212;2022-07-15T09:41:06;5.10;;;1.08;;
71629;SDS011;59479;51.902;8.212;2022-07-15T09:43:47;5.05;;;1.13;;
71629;SDS011;59479;51.902;8.212;2022-07-15T09:46:14;4.38;;;1.20;;
71629;SDS011;59479;51.902;8.212;2022-07-15T09:48:41;4.40;;;1.10;;
71629;SDS011;59479;51.902;8.212;2022-07-15T09:51:08;3.97;;;1.20;;
71629;SDS011;59479;51.902;8.212;2022-07-15T09:53:34;5.72;;;1.10;;
71629;SDS011;59479;51.902;8.212;2022-07-15T09:56:00;6.13;;;1.20;;
71629;SDS011;59479;51.902;8.212;2022-07-15T09:58:27;5.75;;;1.25;;
71629;SDS011;59479;51.902;8.212;2022-07-15T10:00:53;4.72;;;1.20;;
71629;SDS011;59479;51.902;8.212;2022-07-15T10:03:19;3.78;;;1.05;;
71629;SDS011;59479;51.902;8.212;2022-07-15T10:05:49;4.13;;;1.05;;
71629;SDS011;59479;51.902;8.212;2022-07-15T10:08:17;6.97;;;1.23;;
71629;SDS011;59479;51.902;8.212;2022-07-15T10:10:43;4.43;;;1.10;;
71629;SDS011;59479;51.902;8.212;2022-07-15T10:13:19;3.50;;;0.98;;
71629;SDS011;59479;51.902;8.212;2022-07-15T10:18:48;4.05;;;1.10;;
71629;SDS011;59479;51.902;8.212;2022-07-15T10:21:40;3.60;;;1.25;;
71629;SDS011;59479;51.902;8.212;2022-07-15T10:29:35;4.20;;;1.10;;
71629;SDS011;59479;51.902;8.212;2022-07-15T10:32:01;3.13;;;1.10;;
71629;SDS011;59479;51.902;8.212;2022-07-15T10:34:34;4.93;;;1.38;;
71629;SDS011;59479;51.902;8.212;2022-07-15T10:37:10;4.13;;;0.90;;
71629;SDS011;59479;51.902;8.212;2022-07-15T10:39:57;5.27;;;1.20;;
71629;SDS011;59479;51.902;8.212;2022-07-15T10:42:56;2.83;;;0.73;;
71629;SDS011;59479;51.902;8.212;2022-07-15T10:45:24;3.72;;;1.15;;
71629;SDS011;59479;51.902;8.212;2022-07-15T10:47:49;4.90;;;0.90;;
71629;SDS011;59479;51.902;8.212;2022-07-15T10:50:51;3.72;;;1.20;;
71629;SDS011;59479;51.902;8.212;2022-07-15T10:53:19;4.40;;;1.27;;
71629;SDS011;59479;51.902;8.212;2022-07-15T10:55:47;3.80;;;1.03;;
71629;SDS011;59479;51.902;8.212;2022-07-15T10:58:15;4.75;;;1.17;;
71629;SDS011;59479;51.902;8.212;2022-07-15T11:00:44;6.05;;;1.30;;
71629;SDS011;59479;51.902;8.212;2022-07-15T11:03:12;4.00;;;1.00;;
71629;SDS011;59479;51.902;8.212;2022-07-15T11:13:46;4.10;;;0.85;;
71629;SDS011;59479;51.902;8.212;2022-07-15T11:16:17;4.55;;;1.02;;
71629;SDS011;59479;51.902;8.212;2022-07-15T11:18:46;6.15;;;1.52;;
71629;SDS011;59479;51.902;8.212;2022-07-15T11:21:17;4.43;;;1.00;;
71629;SDS011;59479;51.902;8.212;2022-07-15T11:23:45;4.50;;;1.00;;
71629;SDS011;59479;51.902;8.212;2022-07-15T11:26:11;4.07;;;1.10;;
71629;SDS011;59479;51.902;8.212;2022-07-15T11:28:51;3.13;;;0.95;;
71629;SDS011;59479;51.902;8.212;2022-07-15T11:31:19;3.67;;;1.30;;
71629;SDS011;59479;51.902;8.212;2022-07-15T11:33:44;3.60;;;0.80;;
71629;SDS011;59479;51.902;8.212;2022-07-15T11:36:16;4.40;;;1.02;;
71629;SDS011;59479;51.902;8.212;2022-07-15T11:38:43;4.07;;;1.00;;
71629;SDS011;59479;51.902;8.212;2022-07-15T11:41:11;3.97;;;0.98;;
71629;SDS011;59479;51.902;8.212;2022-07-15T11:44:05;3.63;;;0.83;;
71629;SDS011;59479;51.902;8.212;2022-07-15T11:46:56;3.60;;;1.00;;
71629;SDS011;59479;51.902;8.212;2022-07-15T11:49:32;2.95;;;0.90;;
71629;SDS011;59479;51.902;8.212;2022-07-15T11:52:05;3.05;;;1.00;;
71629;SDS011;59479;51.902;8.212;2022-07-15T11:54:34;4.10;;;1.20;;
71629;SDS011;59479;51.902;8.212;2022-07-15T11:57:05;4.30;;;0.90;;
71629;SDS011;59479;51.902;8.212;2022-07-15T11:59:38;3.88;;;1.08;;
71629;SDS011;59479;51.902;8.212;2022-07-15T12:02:05;4.65;;;1.20;;
71629;SDS011;59479;51.902;8.212;2022-07-15T12:04:39;3.65;;;1.08;;
71629;SDS011;59479;51.902;8.212;2022-07-15T12:07:43;4.13;;;1.30;;
71629;SDS011;59479;51.902;8.212;2022-07-15T12:10:21;5.17;;;1.17;;
71629;SDS011;59479;51.902;8.212;2022-07-15T12:12:58;3.78;;;0.93;;
71629;SDS011;59479;51.902;8.212;2022-07-15T12:15:26;3.85;;;1.00;;
71629;SDS011;59479;51.902;8.212;2022-07-15T12:17:53;4.43;;;0.90;;
71629;SDS011;59479;51.902;8.212;2022-07-15T12:20:20;3.35;;;0.88;;
71629;SDS011;59479;51.902;8.212;2022-07-15T12:25:31;4.25;;;0.80;;
71629;SDS011;59479;51.902;8.212;2022-07-15T12:27:57;3.25;;;0.80;;
71629;SDS011;59479;51.902;8.212;2022-07-15T12:30:30;2.67;;;1.07;;
71629;SDS011;59479;51.902;8.212;2022-07-15T12:35:44;3.13;;;0.95;;
71629;SDS011;59479;51.902;8.212;2022-07-15T12:38:15;4.40;;;1.30;;
71629;SDS011;59479;51.902;8.212;2022-07-15T12:40:50;3.00;;;0.80;;
71629;SDS011;59479;51.902;8.212;2022-07-15T12:43:16;3.83;;;0.77;;
71629;SDS011;59479;51.902;8.212;2022-07-15T12:45:41;3.10;;;0.77;;
71629;SDS011;59479;51.902;8.212;2022-07-15T12:48:10;4.82;;;0.90;;
71629;SDS011;59479;51.902;8.212;2022-07-15T12:53:13;3.33;;;0.98;;
71629;SDS011;59479;51.902;8.212;2022-07-15T12:55:42;3.20;;;0.90;;
71629;SDS011;59479;51.902;8.212;2022-07-15T12:58:13;6.07;;;1.00;;
71629;SDS011;59479;51.902;8.212;2022-07-15T13:00:43;2.95;;;0.75;;
71629;SDS011;59479;51.902;8.212;2022-07-15T13:03:19;3.75;;;1.10;;
71629;SDS011;59479;51.902;8.212;2022-07-15T13:05:47;2.67;;;0.95;;
71629;SDS011;59479;51.902;8.212;2022-07-15T13:08:15;4.30;;;0.73;;
71629;SDS011;59479;51.902;8.212;2022-07-15T13:10:42;3.97;;;0.80;;
71629;SDS011;59479;51.902;8.212;2022-07-15T13:13:10;3.30;;;0.98;;
71629;SDS011;59479;51.902;8.212;2022-07-15T13:15:37;4.07;;;1.00;;
71629;SDS011;59479;51.902;8.212;2022-07-15T13:18:03;4.05;;;0.80;;
71629;SDS011;59479;51.902;8.212;2022-07-15T13:20:29;4.90;;;0.90;;
71629;SDS011;59479;51.902;8.212;2022-07-15T13:22:54;3.30;;;0.77;;
71629;SDS011;59479;51.902;8.212;2022-07-15T13:25:20;3.30;;;1.20;;
71629;SDS011;59479;51.902;8.212;2022-07-15T13:27:45;3.40;;;0.90;;
71629;SDS011;59479;51.902;8.212;2022-07-15T13:30:11;3.33;;;1.10;;
71629;SDS011;59479;51.902;8.212;2022-07-15T13:32:37;6.90;;;2.13;;
71629;SDS011;59479;51.902;8.212;2022-07-15T13:35:04;6.50;;;2.08;;
71629;SDS011;59479;51.902;8.212;2022-07-15T13:37:30;4.20;;;1.38;;
71629;SDS011;59479;51.902;8.212;2022-07-15T13:39:56;3.27;;;0.77;;
71629;SDS011;59479;51.902;8.212;2022-07-15T13:42:21;3.47;;;0.90;;
71629;SDS011;59479;51.902;8.212;2022-07-15T13:44:49;3.33;;;1.00;;
71629;SDS011;59479;51.902;8.212;2022-07-15T13:47:15;3.72;;;0.90;;
71629;SDS011;59479;51.902;8.212;2022-07-15T13:49:40;4.43;;;0.80;;
71629;SDS011;59479;51.902;8.212;2022-07-15T13:52:24;2.80;;;0.82;;
71629;SDS011;59479;51.902;8.212;2022-07-15T13:54:50;2.07;;;0.60;;
71629;SDS011;59479;51.902;8.212;2022-07-15T13:57:15;3.30;;;1.00;;
71629;SDS011;59479;51.902;8.212;2022-07-15T13:59:41;2.83;;;1.00;;
71629;SDS011;59479;51.902;8.212;2022-07-15T14:02:09;2.67;;;0.90;;
71629;SDS011;59479;51.902;8.212;2022-07-15T14:04:34;3.88;;;0.90;;
71629;SDS011;59479;51.902;8.212;2022-07-15T14:06:59;6.37;;;1.10;;
71629;SDS011;59479;51.902;8.212;2022-07-15T14:09:25;3.20;;;1.00;;
71629;SDS011;59479;51.902;8.212;2022-07-15T14:11:50;6.43;;;0.97;;
71629;SDS011;59479;51.902;8.212;2022-07-15T14:14:16;3.97;;;0.77;;
71629;SDS011;59479;51.902;8.212;2022-07-15T14:16:41;4.47;;;0.90;;
71629;SDS011;59479;51.902;8.212;2022-07-15T14:19:06;2.83;;;0.90;;
71629;SDS011;59479;51.902;8.212;2022-07-15T14:21:32;3.10;;;0.90;;
71629;SDS011;59479;51.902;8.212;2022-07-15T14:23:58;3.27;;;1.00;;
71629;SDS011;59479;51.902;8.212;2022-07-15T14:26:23;3.30;;;0.90;;
71629;SDS011;59479;51.902;8.212;2022-07-15T14:28:48;4.23;;;0.80;;
71629;SDS011;59479;51.902;8.212;2022-07-15T14:31:14;3.47;;;0.80;;
71629;SDS011;59479;51.902;8.212;2022-07-15T14:33:40;3.17;;;0.95;;
71629;SDS011;59479;51.902;8.212;2022-07-15T14:36:06;4.18;;;0.90;;
71629;SDS011;59479;51.902;8.212;2022-07-15T14:38:32;3.42;;;0.75;;
71629;SDS011;59479;51.902;8.212;2022-07-15T14:40:58;2.40;;;0.80;;
71629;SDS011;59479;51.902;8.212;2022-07-15T14:43:23;3.65;;;0.85;;
71629;SDS011;59479;51.902;8.212;2022-07-15T14:45:48;2.93;;;1.00;;
71629;SDS011;59479;51.902;8.212;2022-07-15T14:48:14;2.87;;;0.80;;
71629;SDS011;59479;51.902;8.212;2022-07-15T14:50:39;2.70;;;1.00;;
71629;SDS011;59479;51.902;8.212;2022-07-15T14:53:05;3.70;;;1.10;;
71629;SDS011;59479;51.902;8.212;2022-07-15T14:55:30;3.37;;;1.00;;
71629;SDS011;59479;51.902;8.212;2022-07-15T14:57:55;3.33;;;1.10;;
71629;SDS011;59479;51.902;8.212;2022-07-15T15:00:21;3.07;;;0.90;;
71629;SDS011;59479;51.902;8.212;2022-07-15T15:02:47;3.05;;;1.05;;
71629;SDS011;59479;51.902;8.212;2022-07-15T15:05:13;5.40;;;0.87;;
71629;SDS011;59479;51.902;8.212;2022-07-15T15:07:38;2.63;;;0.80;;
71629;SDS011;59479;51.902;8.212;2022-07-15T15:10:03;2.20;;;0.70;;
71629;SDS011;59479;51.902;8.212;2022-07-15T15:12:29;3.17;;;0.77;;
71629;SDS011;59479;51.902;8.212;2022-07-15T15:14:54;2.87;;;0.93;;
71629;SDS011;59479;51.902;8.212;2022-07-15T15:17:20;3.00;;;0.90;;
71629;SDS011;59479;51.902;8.212;2022-07-15T15:19:45;2.97;;;1.00;;
71629;SDS011;59479;51.902;8.212;2022-07-15T15:22:10;3.28;;;0.90;;
71629;SDS011;59479;51.902;8.212;2022-07-15T15:24:36;2.17;;;0.60;;
71629;SDS011;59479;51.902;8.212;2022-07-15T15:27:02;2.33;;;0.70;;
71629;SDS011;59479;51.902;8.212;2022-07-15T15:29:29;3.17;;;0.80;;